Airfield :
LOGIN :

Register | Disclaimer

   EN    FR    IT 

 










Legend :    VFR   Marginal VFR   IFR   Intensive IFR   Very Intensive IFR
Visi :
Ceiling :
>= 8 km
>= 3000ft
5 to 8 km
1000 to 3000 ft
1500m to 5 km
500 to 1000 ft
800 to 1500m
200 to 500 ft
< 800m
< 200 ft
Symbols :   Thunderstorms  Fog  Heavy snow  Heavy precipitations  Wind > 20 kt
SIGMETs :     Misc.  Thunderstorms  Icing  Turbulence  Mountain Waves  Volcanic Ashes






- Airport Elevation : 340 ft
- IATA code : BZI


LTBF - Balikesir

CURRENT METAR :
  • 090050Z 00000KT 0500 R36/0600D R18/0325N FG NSC 02/02 Q1019 BECMG 2000 BR

EXPIRED METARs :
  • 082350Z 26002KT 2000 BR NSC 03/03 Q1019 NOSIG
  • 082250Z 26003KT 4000 BR NSC 03/03 Q1019 BECMG 2000

TAF TAF LTBF
Valid from the 09 at 00:00 until the 09 at 09:00 UTC


082240Z 0900/0909 VRB02KT 2000 BR NSC
PROB40 0903/0906 0500 FG BKN008



MET'MAP, your aeronautical weather chart ! - Copyright ORBIFLY December 2007 - Disclaimer

ORBIFLY MET'MAP TEAM :

Programming & Development : Alexandra Zaïnal
Concept & original design : Baudouin d'Aumeries
Assistance for programming : Marc-Olivier Méhu
Technical & hardware support : Manuel Goepfert

Contact : metmap@orbifly.com




SOURCES & CREDITS :

   NOAA